WMKJ

Senai International Airport

Airport
ICAO code
WMKJ
IATA Code
JHB
Summary
ICAO Region
APAC
ICAO Territory
Location

Senai, Johor Bahru

Serving
Senai
Elevation
135 ft
Coordinates
1° 38' 34" N , 103° 40' 5" E
KCC
Metar
Observation
WMKJ 250100Z VRB04KT 4000 -TSRA FEW007 FEW016CB SCT018 23/22 Q1011
Station
Johore Bharu / Senai
Date/Time
2022-09-25 01:00:00
Wind speed
04 kts
Lowest cloud amount
few clouds
Temperature
23°C
Dew point
22°C
Humidity
94%
QNH
1011 hPa
Weather condition
n/a

Senai International Airport, formerly known as Sultan Ismail International Airport, is an airport located in the town of Senai, near Johor Bahru, Malaysia.

Climatology

Tropical Rainforest climate (Köppen climate classification Af) - almost no distinct seasons, average daily temperature around 27°C throughout the year. Extensive cloud cover and heavy rainfall prevent temperatures from rising much over 33°C. The diurnal temperature change is between 2°C and 5°C which is greater than the annual temperature range of 2°C. Rainfall is heavy and is usually convectional and in the afternoon.

Airport map

Aerial View

SKYbrary Partners:

Safety knowledge contributed by: